Ripon, WI (54971)

3:08 AM CDT on September 18, 2014 (GMT -0500)
Barlow Park | Change Station
CLOSE
Current Station
Personal Weather Station
Location: Ripon, WI
Elevation: 984 ft
Nearby Weather Stations

Elev 984 ft 43.83 °N, 88.84 °W | Updated 8 seconds ago

Overcast
Overcast
58.1 °F
Feels Like 58.1 °F
N
0.0
Wind Variable Wind from WNW
Gusts 0.0 mph

Today
High -- | Low -- °F
--% Chance of Precip.
Yesterday
High -- | Low -- °F
Precip. -- in
6:38 AM 7:00 PM
Waning Crescent, 29% visible
Pressure 30.09 in
Visibility 10.0 miles
Clouds Overcast 1300 ft
Dew Point 49 °F
Humidity 72%
Rainfall 0.00 in
Snow Depth Not available.
UV 0.0 out of 12
Pollen 4.40 out of 12
PM2.5 Good
Flu Activity Not available.
METAR KOSH 180753Z 04010KT 10SM OVC013 11/08 A3010 RMK AO2 SLP187 T01110083

More Conditions Fewer Conditions

Pressure 30.09 in
Visibility 10.0 miles
Clouds Overcast 1300 ft
Dew Point 49 °F
Humidity 72%
Rainfall 0.00 in
Snow Depth Not available.
UV 0.0 out of 12
Pollen 4.40 out of 12
PM2.5 Good
Flu Activity Not available.
METAR KOSH 180753Z 04010KT 10SM OVC013 11/08 A3010 RMK AO2 SLP187 T01110083

More Conditions Fewer Conditions

10-Day Weather Forecast

Almanac

Astronomy

Sep. 18, 2014 Rise Set
Actual Time 6:38 AM CDT 7:00 PM CDT
Civil Twilight 6:09 AM CDT 7:28 PM CDT
Nautical Twilight 5:35 AM CDT 8:02 PM CDT
Astronomical Twilight 5:00 AM CDT 8:37 PM CDT
Moon 1:22 AM CDT 3:58 PM CDT
Length of Visible Light 13h 19m
Length of Day
12h 22m
Tomorrow will be 3m 0s shorter.
Waning Crescent, 29% of the Moon is Illuminated
Today
Waning Crescent
Sep 24
New
Oct 1
First Quarter
Oct 8
Full
Oct 15
Last Quarter

Today's Extremes

State Highs State Lows

Community

WunderPhotos

Upload Photos

1,754,306 photos uploaded!

Nearby

Air Quality

  Air Quality AQ Index Pollutant
Yesterday Good
OZONE
Yesterday Good
PM10
Current Good
PM2.5
Thursday Good
PM2.5
Thursday Good
OZONE
Friday Good
PM2.5
Friday Good
OZONE
Saturday Moderate
PM2.5
Saturday Moderate
OZONE

Snow Depth

Station Depth Elevation
No new snow has been reported.

Earthquake Activity

City Distance Mag. Time & Date
No recent earthquake activity has been reported nearby.
Minimum magnitude displayed is 2.5.

Coastal Water Temperatures

Place Temperature
No Stations Reporting

Nearby Weather Stations